Terminal Aerodrome Forecast
Issued by NWS

Home | Current Version | Previous Version | Text Only | Print | Product List | Glossary On
Versions: 1 2 3 4 5 6 7 8 9 10 11 12 13 14 15
000
FTUS42 KMLB 222323
TAFTIX
TAF
KTIX 222323Z 2300/2324 05013KT P6SM FEW035 SCT250
     FM230300 04006KT P6SM SCT030 SCT250
     FM231400 05011KT P6SM SCT030
     FM231800 05013G20KT P6SM SCT035
      AMD NOT SKED 2302/2312=

USA.gov is the U.S. government's official web portal to all federal, state and local government web resources and services.